»·PEaware :: UPS3730 KPDX-KSEA

UPS3730 :: KPDX-KSEA

FLIGHT INFORMATION

Flight Status: Arrived
Operator:
United Parcel Service
More flights by this operator :: More flights under this callsign
Pilot: Mike D. (17473)
Aircraft: BOEING 757-200
(B752)
More flights by this aircraft type
Origin: KPDX Portland Intl
United States
Destination: KSEA Seattle-Tacoma Intl
United States
More flights between these airports :: More routes between these airports
Route: COUGA KRIEG HAWKZ6
File this flight plan on PilotEdge
Remarks:
Altitude:
(Current/Filed)
20,000ft
Speed:
(Current/Filed)
425kts
Departed: 13-Jan-18 02:19 PM
Arrived: 13-Jan-18 02:55 PM
Distance/Time
Traveled:
113nm/0:36
Distance/Time
To Go:
Arrived

Flight Plot

Page will automatically refresh every two minutes.

Flight plan parsing failed; only flown route is shown


Map Options




Map Legend


Flown Route
Filed Route
Departure Airport
Arrival Airport
Navaid (VOR, NDB)
Fix

Horizontal Profiles

Position Reports

Time Latitude Longitude Heading Altitude Ground
Speed
13-Jan-18 13:50 45.584132 -122.608906 134 41ft 0kts
13-Jan-18 13:51 45.584132 -122.608906 134 41ft 0kts
13-Jan-18 13:52 45.584132 -122.608906 134 41ft 0kts
13-Jan-18 13:53 45.584132 -122.608906 134 41ft 0kts
13-Jan-18 13:54 45.584132 -122.608906 134 41ft 0kts
13-Jan-18 13:55 45.584132 -122.608906 134 41ft 0kts
13-Jan-18 13:56 45.584132 -122.608906 134 41ft 0kts
13-Jan-18 13:57 45.584132 -122.608906 134 41ft 0kts
13-Jan-18 13:58 45.584132 -122.608906 134 41ft 0kts
13-Jan-18 13:59 45.584132 -122.608906 134 41ft 0kts
13-Jan-18 14:00 45.584132 -122.608906 134 41ft 0kts
13-Jan-18 14:01 45.584132 -122.608906 134 40ft 0kts
13-Jan-18 14:02 45.584132 -122.608906 134 40ft 0kts
13-Jan-18 14:03 45.584132 -122.608906 134 40ft 0kts
13-Jan-18 14:04 45.584132 -122.608906 134 40ft 0kts
13-Jan-18 14:05 45.584132 -122.608906 134 40ft 0kts
13-Jan-18 14:06 45.584132 -122.608906 134 40ft 0kts
13-Jan-18 14:07 45.584132 -122.608906 134 40ft 0kts
13-Jan-18 14:08 45.584132 -122.608906 134 40ft 0kts
13-Jan-18 14:09 45.584132 -122.608906 134 40ft 0kts
13-Jan-18 14:10 45.584361 -122.609147 136 40ft 2kts
13-Jan-18 14:11 45.584477 -122.609858 45 40ft 0kts
13-Jan-18 14:12 45.584477 -122.609858 45 40ft 0kts
13-Jan-18 14:13 45.584477 -122.609858 45 40ft 0kts
13-Jan-18 14:14 45.584477 -122.609858 45 40ft 0kts
13-Jan-18 14:15 45.584477 -122.609858 45 40ft 0kts
13-Jan-18 14:16 45.584477 -122.609858 45 40ft 0kts
13-Jan-18 14:17 45.585205 -122.608846 43 40ft 5kts
13-Jan-18 14:18 45.586609 -122.608646 43 40ft 6kts
13-Jan-18 14:19 45.587859 -122.606980 21 40ft 7kts
13-Jan-18 14:20 45.589357 -122.609856 298 40ft 11kts
13-Jan-18 14:21 45.590257 -122.614974 297 40ft 15kts
13-Jan-18 14:22 45.592553 -122.620862 298 40ft 16kts
13-Jan-18 14:23 45.593691 -122.622428 20 40ft 5kts
13-Jan-18 14:24 45.594939 -122.621180 94 40ft 4kts
13-Jan-18 14:25 45.586054 -122.598062 119 57ft 170kts
13-Jan-18 14:26 45.563277 -122.534924 118 2451ft 204kts
13-Jan-18 14:27 45.536002 -122.456245 113 5386ft 243kts
13-Jan-18 14:28 45.531468 -122.368192 36 7922ft 246kts
13-Jan-18 14:29 45.594561 -122.390665 321 9805ft 275kts
13-Jan-18 14:30 45.665064 -122.438024 335 12356ft 290kts
13-Jan-18 14:31 45.741819 -122.481385 335 14639ft 307kts
13-Jan-18 14:32 45.823193 -122.527218 335 16825ft 323kts
13-Jan-18 14:33 45.909471 -122.575836 335 18710ft 346kts
13-Jan-18 14:34 46.001843 -122.627907 335 20423ft 365kts
13-Jan-18 14:35 46.107271 -122.675039 348 20441ft 435kts
13-Jan-18 14:36 46.219115 -122.701373 349 20855ft 447kts
13-Jan-18 14:37 46.339880 -122.722472 355 20430ft 431kts
13-Jan-18 14:38 46.449115 -122.726700 355 20399ft 359kts
13-Jan-18 14:39 46.547312 -122.730349 355 18951ft 350kts
13-Jan-18 14:40 46.643785 -122.733848 355 17586ft 343kts
13-Jan-18 14:41 46.738681 -122.737288 355 15900ft 335kts
13-Jan-18 14:42 46.823757 -122.691950 36 15012ft 341kts
13-Jan-18 14:43 46.898265 -122.606970 35 14325ft 342kts
13-Jan-18 14:44 46.979806 -122.544190 13 12287ft 339kts
13-Jan-18 14:45 47.069936 -122.504632 13 10191ft 338kts
13-Jan-18 14:46 47.152997 -122.464026 19 9642ft 301kts
13-Jan-18 14:47 47.215513 -122.389722 70 9028ft 325kts
13-Jan-18 14:48 47.239634 -122.269558 73 6622ft 296kts
13-Jan-18 14:49 47.216099 -122.162533 147 4780ft 293kts
13-Jan-18 14:50 47.139252 -122.143388 183 3948ft 274kts
13-Jan-18 14:51 47.098643 -122.215462 273 3107ft 253kts
13-Jan-18 14:52 47.110461 -122.301884 315 2700ft 194kts
13-Jan-18 14:53 47.158766 -122.312881 6 3113ft 182kts
13-Jan-18 14:54 47.208260 -122.309295 359 2986ft 166kts
13-Jan-18 14:55 47.254249 -122.312374 4 2855ft 164kts
13-Jan-18 14:56 47.299879 -122.308754 358 2879ft 162kts
13-Jan-18 14:57 47.345989 -122.309058 1 2054ft 158kts
13-Jan-18 14:58 47.385220 -122.308332 359 1221ft 132kts
13-Jan-18 14:59 47.421975 -122.308231 1 630ft 127kts
13-Jan-18 15:00 47.449160 -122.307887 0 444ft 51kts
13-Jan-18 15:01 47.452382 -122.306478 66 444ft 3kts
13-Jan-18 15:02 47.453792 -122.306213 0 444ft 6kts
13-Jan-18 15:03 47.455507 -122.306208 0 444ft 6kts
13-Jan-18 15:04 47.457533 -122.306195 0 444ft 7kts
13-Jan-18 15:05 47.461325 -122.306162 1 444ft 17kts
13-Jan-18 15:06 47.461501 -122.303570 167 444ft 6kts

Navigation Log

Ident Type
Flight plan parsing failed, navigation log unavailable